sensor_id;sensor_type;location;lat;lon;timestamp;temperature;humidity
76857;DHT22;66179;44.686;37.628;2023-03-01T00:01:07;5.06;84.47
76857;DHT22;66179;44.686;37.628;2023-03-01T00:03:35;5.03;84.30
76857;DHT22;66179;44.686;37.628;2023-03-01T00:06:27;5.06;84.31
76857;DHT22;66179;44.686;37.628;2023-03-01T00:08:54;4.98;84.39
76857;DHT22;66179;44.686;37.628;2023-03-01T00:11:23;4.97;84.51
76857;DHT22;66179;44.686;37.628;2023-03-01T00:13:53;4.95;84.22
76857;DHT22;66179;44.686;37.628;2023-03-01T00:16:29;4.88;84.45
76857;DHT22;66179;44.686;37.628;2023-03-01T00:18:57;4.87;84.37
76857;DHT22;66179;44.686;37.628;2023-03-01T00:21:25;4.84;84.55
76857;DHT22;66179;44.686;37.628;2023-03-01T00:23:53;4.82;84.51
76857;DHT22;66179;44.686;37.628;2023-03-01T00:26:21;4.81;84.42
76857;DHT22;66179;44.686;37.628;2023-03-01T00:28:48;4.81;84.25
76857;DHT22;66179;44.686;37.628;2023-03-01T00:31:20;4.78;84.00
76857;DHT22;66179;44.686;37.628;2023-03-01T00:33:48;4.80;83.97
76857;DHT22;66179;44.686;37.628;2023-03-01T00:36:17;4.78;84.06
76857;DHT22;66179;44.686;37.628;2023-03-01T00:38:45;4.78;83.83
76857;DHT22;66179;44.686;37.628;2023-03-01T00:41:15;4.80;83.40
76857;DHT22;66179;44.686;37.628;2023-03-01T00:43:42;4.77;83.69
76857;DHT22;66179;44.686;37.628;2023-03-01T00:46:12;4.76;83.76
76857;DHT22;66179;44.686;37.628;2023-03-01T00:48:39;4.69;84.03
76857;DHT22;66179;44.686;37.628;2023-03-01T00:51:13;4.67;84.07
76857;DHT22;66179;44.686;37.628;2023-03-01T00:53:40;4.66;84.03
76857;DHT22;66179;44.686;37.628;2023-03-01T00:56:09;4.67;84.12
76857;DHT22;66179;44.686;37.628;2023-03-01T00:58:37;4.69;83.99
76857;DHT22;66179;44.686;37.628;2023-03-01T01:01:12;4.66;83.61
76857;DHT22;66179;44.686;37.628;2023-03-01T01:03:49;4.61;83.75
76857;DHT22;66179;44.686;37.628;2023-03-01T01:06:18;4.54;84.30
76857;DHT22;66179;44.686;37.628;2023-03-01T01:08:45;4.51;84.52
76857;DHT22;66179;44.686;37.628;2023-03-01T01:11:12;4.42;84.77
76857;DHT22;66179;44.686;37.628;2023-03-01T01:13:39;4.38;85.32
76857;DHT22;66179;44.686;37.628;2023-03-01T01:16:07;4.35;85.38
76857;DHT22;66179;44.686;37.628;2023-03-01T01:18:35;4.31;85.26
76857;DHT22;66179;44.686;37.628;2023-03-01T01:21:10;4.33;85.06
76857;DHT22;66179;44.686;37.628;2023-03-01T01:23:38;4.34;84.90
76857;DHT22;66179;44.686;37.628;2023-03-01T01:26:08;4.34;85.05
76857;DHT22;66179;44.686;37.628;2023-03-01T01:28:35;4.32;85.19
76857;DHT22;66179;44.686;37.628;2023-03-01T01:31:03;4.31;85.19
76857;DHT22;66179;44.686;37.628;2023-03-01T01:33:30;4.30;85.42
76857;DHT22;66179;44.686;37.628;2023-03-01T01:35:58;4.28;85.54
76857;DHT22;66179;44.686;37.628;2023-03-01T01:38:25;4.22;85.86
76857;DHT22;66179;44.686;37.628;2023-03-01T01:40:52;4.20;85.72
76857;DHT22;66179;44.686;37.628;2023-03-01T01:43:26;4.15;86.14
76857;DHT22;66179;44.686;37.628;2023-03-01T01:45:59;4.10;86.35
76857;DHT22;66179;44.686;37.628;2023-03-01T01:48:34;4.09;86.33
76857;DHT22;66179;44.686;37.628;2023-03-01T01:51:11;4.13;86.03
76857;DHT22;66179;44.686;37.628;2023-03-01T01:53:42;4.17;85.90
76857;DHT22;66179;44.686;37.628;2023-03-01T01:56:13;4.21;85.29
76857;DHT22;66179;44.686;37.628;2023-03-01T01:58:42;4.20;85.02
76857;DHT22;66179;44.686;37.628;2023-03-01T02:01:10;4.20;84.87
76857;DHT22;66179;44.686;37.628;2023-03-01T02:03:39;4.13;84.88
76857;DHT22;66179;44.686;37.628;2023-03-01T02:06:26;4.14;85.06
76857;DHT22;66179;44.686;37.628;2023-03-01T02:09:03;4.17;84.92
76857;DHT22;66179;44.686;37.628;2023-03-01T02:11:33;4.18;84.74
76857;DHT22;66179;44.686;37.628;2023-03-01T02:14:00;4.15;84.48
76857;DHT22;66179;44.686;37.628;2023-03-01T02:16:27;4.15;84.62
76857;DHT22;66179;44.686;37.628;2023-03-01T02:18:54;4.12;85.09
76857;DHT22;66179;44.686;37.628;2023-03-01T02:23:54;4.12;84.45
76857;DHT22;66179;44.686;37.628;2023-03-01T02:26:36;4.13;84.44
76857;DHT22;66179;44.686;37.628;2023-03-01T02:29:07;4.12;84.38
76857;DHT22;66179;44.686;37.628;2023-03-01T02:31:34;4.15;84.04
76857;DHT22;66179;44.686;37.628;2023-03-01T02:34:17;4.20;84.29
76857;DHT22;66179;44.686;37.628;2023-03-01T02:37:11;4.24;83.62
76857;DHT22;66179;44.686;37.628;2023-03-01T02:39:42;4.24;83.17
76857;DHT22;66179;44.686;37.628;2023-03-01T02:42:14;4.28;83.41
76857;DHT22;66179;44.686;37.628;2023-03-01T02:44:42;4.27;83.11
76857;DHT22;66179;44.686;37.628;2023-03-01T02:47:08;4.23;83.44
76857;DHT22;66179;44.686;37.628;2023-03-01T02:49:37;4.28;82.84
76857;DHT22;66179;44.686;37.628;2023-03-01T02:55:09;4.36;82.55
76857;DHT22;66179;44.686;37.628;2023-03-01T02:57:40;4.33;82.65
76857;DHT22;66179;44.686;37.628;2023-03-01T03:00:09;4.29;83.24
76857;DHT22;66179;44.686;37.628;2023-03-01T03:02:37;4.31;82.86
76857;DHT22;66179;44.686;37.628;2023-03-01T03:05:27;4.31;83.00
76857;DHT22;66179;44.686;37.628;2023-03-01T03:07:57;4.34;82.69
76857;DHT22;66179;44.686;37.628;2023-03-01T03:10:28;4.38;82.91
76857;DHT22;66179;44.686;37.628;2023-03-01T03:13:00;4.42;82.78
76857;DHT22;66179;44.686;37.628;2023-03-01T03:15:27;4.44;82.85
76857;DHT22;66179;44.686;37.628;2023-03-01T03:17:56;4.43;82.55
76857;DHT22;66179;44.686;37.628;2023-03-01T03:20:27;4.43;82.36
76857;DHT22;66179;44.686;37.628;2023-03-01T03:22:55;4.43;82.29
76857;DHT22;66179;44.686;37.628;2023-03-01T03:25:23;4.46;82.32
76857;DHT22;66179;44.686;37.628;2023-03-01T03:27:51;4.45;82.16
76857;DHT22;66179;44.686;37.628;2023-03-01T03:30:25;4.46;82.20
76857;DHT22;66179;44.686;37.628;2023-03-01T03:32:52;4.44;82.21
76857;DHT22;66179;44.686;37.628;2023-03-01T03:35:27;4.45;82.00
76857;DHT22;66179;44.686;37.628;2023-03-01T03:38:04;4.43;82.44
76857;DHT22;66179;44.686;37.628;2023-03-01T03:40:44;4.45;82.06
76857;DHT22;66179;44.686;37.628;2023-03-01T03:43:13;4.45;81.94
76857;DHT22;66179;44.686;37.628;2023-03-01T03:45:40;4.39;82.56
76857;DHT22;66179;44.686;37.628;2023-03-01T03:48:08;4.38;82.66
76857;DHT22;66179;44.686;37.628;2023-03-01T03:50:37;4.38;82.17
76857;DHT22;66179;44.686;37.628;2023-03-01T03:53:06;4.37;82.55
76857;DHT22;66179;44.686;37.628;2023-03-01T03:55:33;4.39;82.32
76857;DHT22;66179;44.686;37.628;2023-03-01T03:58:01;4.42;82.65
76857;DHT22;66179;44.686;37.628;2023-03-01T04:00:35;4.41;82.49
76857;DHT22;66179;44.686;37.628;2023-03-01T04:03:02;4.39;82.31
76857;DHT22;66179;44.686;37.628;2023-03-01T04:05:29;4.37;82.51
76857;DHT22;66179;44.686;37.628;2023-03-01T04:07:56;4.36;82.25
76857;DHT22;66179;44.686;37.628;2023-03-01T04:10:32;4.35;82.46
76857;DHT22;66179;44.686;37.628;2023-03-01T04:12:58;4.34;82.46
76857;DHT22;66179;44.686;37.628;2023-03-01T04:15:26;4.31;82.73
76857;DHT22;66179;44.686;37.628;2023-03-01T04:17:54;4.31;82.62
76857;DHT22;66179;44.686;37.628;2023-03-01T04:20:23;4.29;82.70
76857;DHT22;66179;44.686;37.628;2023-03-01T04:23:03;4.30;82.49
76857;DHT22;66179;44.686;37.628;2023-03-01T04:26:02;4.23;82.91
76857;DHT22;66179;44.686;37.628;2023-03-01T04:28:29;4.18;82.84
76857;DHT22;66179;44.686;37.628;2023-03-01T04:30:58;4.18;82.97
76857;DHT22;66179;44.686;37.628;2023-03-01T04:33:25;4.20;83.09
76857;DHT22;66179;44.686;37.628;2023-03-01T04:35:51;4.19;83.29
76857;DHT22;66179;44.686;37.628;2023-03-01T04:38:19;4.18;83.28
76857;DHT22;66179;44.686;37.628;2023-03-01T04:40:46;4.18;83.32
76857;DHT22;66179;44.686;37.628;2023-03-01T04:43:13;4.18;83.50
76857;DHT22;66179;44.686;37.628;2023-03-01T04:45:40;4.18;83.45
76857;DHT22;66179;44.686;37.628;2023-03-01T04:48:07;4.20;83.49
76857;DHT22;66179;44.686;37.628;2023-03-01T04:50:34;4.23;83.16
76857;DHT22;66179;44.686;37.628;2023-03-01T04:53:01;4.26;83.30
76857;DHT22;66179;44.686;37.628;2023-03-01T04:55:28;4.28;83.39
76857;DHT22;66179;44.686;37.628;2023-03-01T04:57:55;4.32;83.24
76857;DHT22;66179;44.686;37.628;2023-03-01T05:00:23;4.38;83.37
76857;DHT22;66179;44.686;37.628;2023-03-01T05:02:57;4.39;83.03
76857;DHT22;66179;44.686;37.628;2023-03-01T05:05:35;4.41;82.67
76857;DHT22;66179;44.686;37.628;2023-03-01T05:08:05;4.38;83.04
76857;DHT22;66179;44.686;37.628;2023-03-01T05:10:35;4.38;83.45
76857;DHT22;66179;44.686;37.628;2023-03-01T05:13:03;4.37;83.21
76857;DHT22;66179;44.686;37.628;2023-03-01T05:15:31;4.39;83.57
76857;DHT22;66179;44.686;37.628;2023-03-01T05:17:59;4.41;83.48
76857;DHT22;66179;44.686;37.628;2023-03-01T05:20:27;4.41;83.65
76857;DHT22;66179;44.686;37.628;2023-03-01T05:22:56;4.43;83.77
76857;DHT22;66179;44.686;37.628;2023-03-01T05:25:25;4.45;83.86
76857;DHT22;66179;44.686;37.628;2023-03-01T05:27:51;4.50;83.74
76857;DHT22;66179;44.686;37.628;2023-03-01T05:30:18;4.54;83.51
76857;DHT22;66179;44.686;37.628;2023-03-01T05:32:49;4.48;83.81
76857;DHT22;66179;44.686;37.628;2023-03-01T05:35:17;4.50;83.92
76857;DHT22;66179;44.686;37.628;2023-03-01T05:37:46;4.51;84.07
76857;DHT22;66179;44.686;37.628;2023-03-01T05:40:16;4.52;83.45
76857;DHT22;66179;44.686;37.628;2023-03-01T05:42:44;4.53;83.69
76857;DHT22;66179;44.686;37.628;2023-03-01T05:45:12;4.58;83.83
76857;DHT22;66179;44.686;37.628;2023-03-01T05:47:45;4.60;83.42
76857;DHT22;66179;44.686;37.628;2023-03-01T05:52:56;4.53;84.09
76857;DHT22;66179;44.686;37.628;2023-03-01T05:55:24;4.58;83.90
76857;DHT22;66179;44.686;37.628;2023-03-01T05:57:50;4.59;83.92
76857;DHT22;66179;44.686;37.628;2023-03-01T06:00:19;4.61;83.58
76857;DHT22;66179;44.686;37.628;2023-03-01T06:02:46;4.58;83.89
76857;DHT22;66179;44.686;37.628;2023-03-01T06:05:14;4.57;83.90
76857;DHT22;66179;44.686;37.628;2023-03-01T06:07:41;4.53;84.24
76857;DHT22;66179;44.686;37.628;2023-03-01T06:10:09;4.54;84.42
76857;DHT22;66179;44.686;37.628;2023-03-01T06:12:38;4.60;84.16
76857;DHT22;66179;44.686;37.628;2023-03-01T06:15:06;4.66;83.75
76857;DHT22;66179;44.686;37.628;2023-03-01T06:17:35;4.62;83.16
76857;DHT22;66179;44.686;37.628;2023-03-01T06:20:07;4.66;82.69
76857;DHT22;66179;44.686;37.628;2023-03-01T06:22:35;4.67;82.71
76857;DHT22;66179;44.686;37.628;2023-03-01T06:25:01;4.65;81.87
76857;DHT22;66179;44.686;37.628;2023-03-01T06:27:28;4.61;81.86
76857;DHT22;66179;44.686;37.628;2023-03-01T06:29:55;4.61;81.80
76857;DHT22;66179;44.686;37.628;2023-03-01T06:32:21;4.66;81.95
76857;DHT22;66179;44.686;37.628;2023-03-01T06:34:49;4.67;82.13
76857;DHT22;66179;44.686;37.628;2023-03-01T06:37:15;4.68;81.89
76857;DHT22;66179;44.686;37.628;2023-03-01T06:39:42;4.78;82.04
76857;DHT22;66179;44.686;37.628;2023-03-01T06:42:09;4.86;81.17
76857;DHT22;66179;44.686;37.628;2023-03-01T06:44:38;4.84;81.02
76857;DHT22;66179;44.686;37.628;2023-03-01T06:47:05;4.82;81.68
76857;DHT22;66179;44.686;37.628;2023-03-01T06:49:31;4.89;81.33
76857;DHT22;66179;44.686;37.628;2023-03-01T06:51:58;4.90;81.22
76857;DHT22;66179;44.686;37.628;2023-03-01T06:54:25;4.87;80.85
76857;DHT22;66179;44.686;37.628;2023-03-01T06:56:51;4.97;81.15
76857;DHT22;66179;44.686;37.628;2023-03-01T06:59:19;5.03;80.36
76857;DHT22;66179;44.686;37.628;2023-03-01T07:01:45;5.08;81.23
76857;DHT22;66179;44.686;37.628;2023-03-01T07:04:13;5.08;80.48
76857;DHT22;66179;44.686;37.628;2023-03-01T07:06:41;5.18;80.87
76857;DHT22;66179;44.686;37.628;2023-03-01T07:09:08;5.24;80.32
76857;DHT22;66179;44.686;37.628;2023-03-01T07:11:34;5.20;80.07
76857;DHT22;66179;44.686;37.628;2023-03-01T07:14:01;5.25;79.94
76857;DHT22;66179;44.686;37.628;2023-03-01T07:16:27;5.35;80.02
76857;DHT22;66179;44.686;37.628;2023-03-01T07:18:54;5.31;78.20
76857;DHT22;66179;44.686;37.628;2023-03-01T07:21:20;5.33;79.46
76857;DHT22;66179;44.686;37.628;2023-03-01T07:23:48;5.47;78.24
76857;DHT22;66179;44.686;37.628;2023-03-01T07:26:17;5.53;78.22
76857;DHT22;66179;44.686;37.628;2023-03-01T07:28:44;5.50;77.44
76857;DHT22;66179;44.686;37.628;2023-03-01T07:31:10;5.42;77.28
76857;DHT22;66179;44.686;37.628;2023-03-01T07:33:37;5.52;78.14
76857;DHT22;66179;44.686;37.628;2023-03-01T07:36:04;5.61;77.31
76857;DHT22;66179;44.686;37.628;2023-03-01T07:38:32;5.66;76.85
76857;DHT22;66179;44.686;37.628;2023-03-01T07:41:00;5.61;76.79
76857;DHT22;66179;44.686;37.628;2023-03-01T07:43:28;5.65;76.54
76857;DHT22;66179;44.686;37.628;2023-03-01T07:45:58;5.75;76.95
76857;DHT22;66179;44.686;37.628;2023-03-01T07:48:24;5.76;75.94
76857;DHT22;66179;44.686;37.628;2023-03-01T07:50:51;5.81;75.58
76857;DHT22;66179;44.686;37.628;2023-03-01T07:53:17;5.84;75.81
76857;DHT22;66179;44.686;37.628;2023-03-01T07:55:44;5.98;76.11
76857;DHT22;66179;44.686;37.628;2023-03-01T07:58:11;6.00;74.80
76857;DHT22;66179;44.686;37.628;2023-03-01T08:00:37;6.02;74.84
76857;DHT22;66179;44.686;37.628;2023-03-01T08:03:04;6.09;74.72
76857;DHT22;66179;44.686;37.628;2023-03-01T08:05:30;6.15;74.72
76857;DHT22;66179;44.686;37.628;2023-03-01T08:07:57;6.24;74.60
76857;DHT22;66179;44.686;37.628;2023-03-01T08:10:23;6.23;73.79
76857;DHT22;66179;44.686;37.628;2023-03-01T08:12:53;6.30;73.76
76857;DHT22;66179;44.686;37.628;2023-03-01T08:15:20;6.39;73.32
76857;DHT22;66179;44.686;37.628;2023-03-01T08:17:49;6.45;72.74
76857;DHT22;66179;44.686;37.628;2023-03-01T08:20:16;6.52;72.27
76857;DHT22;66179;44.686;37.628;2023-03-01T08:22:42;6.67;72.09
76857;DHT22;66179;44.686;37.628;2023-03-01T08:25:09;6.82;71.45
76857;DHT22;66179;44.686;37.628;2023-03-01T08:27:36;6.86;70.13
76857;DHT22;66179;44.686;37.628;2023-03-01T08:30:03;6.93;70.68
76857;DHT22;66179;44.686;37.628;2023-03-01T08:32:38;7.01;69.64
76857;DHT22;66179;44.686;37.628;2023-03-01T08:35:06;7.18;69.45
76857;DHT22;66179;44.686;37.628;2023-03-01T08:37:33;7.26;68.36
76857;DHT22;66179;44.686;37.628;2023-03-01T08:40:00;7.32;69.23
76857;DHT22;66179;44.686;37.628;2023-03-01T08:42:27;7.44;67.88
76857;DHT22;66179;44.686;37.628;2023-03-01T08:44:53;7.45;68.24
76857;DHT22;66179;44.686;37.628;2023-03-01T08:47:20;7.61;70.15
76857;DHT22;66179;44.686;37.628;2023-03-01T08:49:49;7.46;67.14
76857;DHT22;66179;44.686;37.628;2023-03-01T08:52:16;7.54;67.72
76857;DHT22;66179;44.686;37.628;2023-03-01T08:54:43;7.47;67.04
76857;DHT22;66179;44.686;37.628;2023-03-01T08:57:11;7.47;66.84
76857;DHT22;66179;44.686;37.628;2023-03-01T08:59:38;7.59;66.56
76857;DHT22;66179;44.686;37.628;2023-03-01T09:02:14;7.64;65.89
76857;DHT22;66179;44.686;37.628;2023-03-01T09:04:41;7.79;66.60
76857;DHT22;66179;44.686;37.628;2023-03-01T09:07:08;8.03;66.47
76857;DHT22;66179;44.686;37.628;2023-03-01T09:09:35;8.15;65.11
76857;DHT22;66179;44.686;37.628;2023-03-01T09:12:02;8.16;65.71
76857;DHT22;66179;44.686;37.628;2023-03-01T09:14:42;8.11;65.16
76857;DHT22;66179;44.686;37.628;2023-03-01T09:17:09;8.11;64.69
76857;DHT22;66179;44.686;37.628;2023-03-01T09:19:35;8.04;64.92
76857;DHT22;66179;44.686;37.628;2023-03-01T09:22:03;8.15;63.89
76857;DHT22;66179;44.686;37.628;2023-03-01T09:24:30;8.21;63.60
76857;DHT22;66179;44.686;37.628;2023-03-01T09:26:57;8.11;63.69
76857;DHT22;66179;44.686;37.628;2023-03-01T09:29:24;8.12;64.34
76857;DHT22;66179;44.686;37.628;2023-03-01T09:31:52;8.13;62.92
76857;DHT22;66179;44.686;37.628;2023-03-01T09:34:22;8.21;62.57
76857;DHT22;66179;44.686;37.628;2023-03-01T09:36:50;8.27;61.92
76857;DHT22;66179;44.686;37.628;2023-03-01T09:39:18;8.34;61.70
76857;DHT22;66179;44.686;37.628;2023-03-01T09:42:02;8.37;59.75
76857;DHT22;66179;44.686;37.628;2023-03-01T09:44:47;8.37;59.21
76857;DHT22;66179;44.686;37.628;2023-03-01T09:47:23;8.45;59.72
76857;DHT22;66179;44.686;37.628;2023-03-01T09:55:01;8.35;57.73
76857;DHT22;66179;44.686;37.628;2023-03-01T10:03:00;8.63;57.67
76857;DHT22;66179;44.686;37.628;2023-03-01T10:05:43;8.66;58.70
76857;DHT22;66179;44.686;37.628;2023-03-01T10:11:03;9.05;57.77
76857;DHT22;66179;44.686;37.628;2023-03-01T10:13:47;9.17;56.32
76857;DHT22;66179;44.686;37.628;2023-03-01T10:16:28;9.29;56.83
76857;DHT22;66179;44.686;37.628;2023-03-01T10:19:03;9.35;55.08
76857;DHT22;66179;44.686;37.628;2023-03-01T10:21:30;9.46;57.31
76857;DHT22;66179;44.686;37.628;2023-03-01T10:24:12;9.56;55.55
76857;DHT22;66179;44.686;37.628;2023-03-01T10:26:53;9.70;53.65
76857;DHT22;66179;44.686;37.628;2023-03-01T10:29:26;9.79;55.36
76857;DHT22;66179;44.686;37.628;2023-03-01T10:31:55;9.91;54.51
76857;DHT22;66179;44.686;37.628;2023-03-01T10:34:28;10.15;54.39
76857;DHT22;66179;44.686;37.628;2023-03-01T10:37:08;10.30;53.17
76857;DHT22;66179;44.686;37.628;2023-03-01T10:39:36;10.29;53.84
76857;DHT22;66179;44.686;37.628;2023-03-01T10:42:18;10.35;52.75
76857;DHT22;66179;44.686;37.628;2023-03-01T10:44:47;10.41;51.76
76857;DHT22;66179;44.686;37.628;2023-03-01T10:47:21;10.39;50.28
76857;DHT22;66179;44.686;37.628;2023-03-01T10:50:05;10.41;50.88
76857;DHT22;66179;44.686;37.628;2023-03-01T10:52:37;10.43;52.59
76857;DHT22;66179;44.686;37.628;2023-03-01T10:55:29;10.49;52.29
76857;DHT22;66179;44.686;37.628;2023-03-01T10:58:21;10.54;57.39
76857;DHT22;66179;44.686;37.628;2023-03-01T11:00:57;10.12;60.50
76857;DHT22;66179;44.686;37.628;2023-03-01T11:03:33;10.13;60.94
76857;DHT22;66179;44.686;37.628;2023-03-01T11:08:42;10.26;43.74
76857;DHT22;66179;44.686;37.628;2023-03-01T11:11:13;10.16;46.38
76857;DHT22;66179;44.686;37.628;2023-03-01T11:16:37;10.26;44.96
76857;DHT22;66179;44.686;37.628;2023-03-01T11:19:16;10.15;45.96
76857;DHT22;66179;44.686;37.628;2023-03-01T11:22:03;10.09;46.52
76857;DHT22;66179;44.686;37.628;2023-03-01T11:24:43;9.97;45.97
76857;DHT22;66179;44.686;37.628;2023-03-01T11:27:21;9.94;45.95
76857;DHT22;66179;44.686;37.628;2023-03-01T11:32:21;10.15;44.01
76857;DHT22;66179;44.686;37.628;2023-03-01T11:43:49;9.90;45.09
76857;DHT22;66179;44.686;37.628;2023-03-01T11:57:54;10.13;45.01
76857;DHT22;66179;44.686;37.628;2023-03-01T12:09:27;9.90;44.12
76857;DHT22;66179;44.686;37.628;2023-03-01T12:21:18;9.45;42.72
76857;DHT22;66179;44.686;37.628;2023-03-01T12:29:50;9.53;46.85
76857;DHT22;66179;44.686;37.628;2023-03-01T12:35:33;9.36;47.63
76857;DHT22;66179;44.686;37.628;2023-03-01T12:38:06;9.09;48.83
76857;DHT22;66179;44.686;37.628;2023-03-01T12:41:08;8.98;49.50
76857;DHT22;66179;44.686;37.628;2023-03-01T12:51:38;9.16;49.18
76857;DHT22;66179;44.686;37.628;2023-03-01T12:54:14;9.45;50.88
76857;DHT22;66179;44.686;37.628;2023-03-01T12:56:42;9.57;49.81
76857;DHT22;66179;44.686;37.628;2023-03-01T12:59:36;9.67;49.54
76857;DHT22;66179;44.686;37.628;2023-03-01T13:05:26;9.83;48.04
76857;DHT22;66179;44.686;37.628;2023-03-01T13:11:01;9.93;44.99
76857;DHT22;66179;44.686;37.628;2023-03-01T13:13:29;9.84;43.87
76857;DHT22;66179;44.686;37.628;2023-03-01T13:15:56;9.85;44.19
76857;DHT22;66179;44.686;37.628;2023-03-01T13:20:59;9.65;42.10
76857;DHT22;66179;44.686;37.628;2023-03-01T13:23:30;9.64;41.76
76857;DHT22;66179;44.686;37.628;2023-03-01T13:33:49;9.44;43.51
76857;DHT22;66179;44.686;37.628;2023-03-01T13:38:57;9.39;44.61
76857;DHT22;66179;44.686;37.628;2023-03-01T13:44:35;9.32;45.00
76857;DHT22;66179;44.686;37.628;2023-03-01T13:49:56;9.29;43.29
76857;DHT22;66179;44.686;37.628;2023-03-01T13:52:53;9.26;44.83
76857;DHT22;66179;44.686;37.628;2023-03-01T13:55:47;9.24;45.63
76857;DHT22;66179;44.686;37.628;2023-03-01T13:58:16;9.21;44.85
76857;DHT22;66179;44.686;37.628;2023-03-01T14:00:46;9.18;44.06
76857;DHT22;66179;44.686;37.628;2023-03-01T14:03:18;9.11;43.50
76857;DHT22;66179;44.686;37.628;2023-03-01T14:06:15;9.08;45.72
76857;DHT22;66179;44.686;37.628;2023-03-01T14:08:45;9.04;47.22
76857;DHT22;66179;44.686;37.628;2023-03-01T14:14:03;8.87;45.21
76857;DHT22;66179;44.686;37.628;2023-03-01T14:16:41;8.81;46.99
76857;DHT22;66179;44.686;37.628;2023-03-01T14:19:26;8.79;47.50
76857;DHT22;66179;44.686;37.628;2023-03-01T14:24:52;8.75;45.83
76857;DHT22;66179;44.686;37.628;2023-03-01T14:27:20;8.73;46.69
76857;DHT22;66179;44.686;37.628;2023-03-01T14:30:02;8.70;45.51
76857;DHT22;66179;44.686;37.628;2023-03-01T14:32:31;8.65;46.90
76857;DHT22;66179;44.686;37.628;2023-03-01T14:34:59;8.56;45.29
76857;DHT22;66179;44.686;37.628;2023-03-01T14:37:27;8.48;46.44
76857;DHT22;66179;44.686;37.628;2023-03-01T14:39:56;8.39;45.63
76857;DHT22;66179;44.686;37.628;2023-03-01T14:42:25;8.29;46.12
76857;DHT22;66179;44.686;37.628;2023-03-01T14:44:55;8.13;45.76
76857;DHT22;66179;44.686;37.628;2023-03-01T14:47:32;8.06;45.99
76857;DHT22;66179;44.686;37.628;2023-03-01T14:50:05;7.99;45.89
76857;DHT22;66179;44.686;37.628;2023-03-01T14:52:38;7.89;46.55
76857;DHT22;66179;44.686;37.628;2023-03-01T14:55:16;7.84;46.64
76857;DHT22;66179;44.686;37.628;2023-03-01T14:57:47;7.78;47.73
76857;DHT22;66179;44.686;37.628;2023-03-01T15:00:26;7.73;47.73
76857;DHT22;66179;44.686;37.628;2023-03-01T15:02:55;7.69;47.96
76857;DHT22;66179;44.686;37.628;2023-03-01T15:05:31;7.69;49.34
76857;DHT22;66179;44.686;37.628;2023-03-01T15:07:59;7.67;50.49
76857;DHT22;66179;44.686;37.628;2023-03-01T15:10:29;7.61;49.89
76857;DHT22;66179;44.686;37.628;2023-03-01T15:13:09;7.54;50.48
76857;DHT22;66179;44.686;37.628;2023-03-01T15:15:38;7.46;51.56
76857;DHT22;66179;44.686;37.628;2023-03-01T15:18:17;7.45;52.17
76857;DHT22;66179;44.686;37.628;2023-03-01T15:20:44;7.35;52.69
76857;DHT22;66179;44.686;37.628;2023-03-01T15:25:44;7.26;53.27
76857;DHT22;66179;44.686;37.628;2023-03-01T15:28:18;7.26;53.70
76857;DHT22;66179;44.686;37.628;2023-03-01T15:30:53;7.15;53.19
76857;DHT22;66179;44.686;37.628;2023-03-01T15:35:52;7.11;55.50
76857;DHT22;66179;44.686;37.628;2023-03-01T15:41:32;6.97;55.60
76857;DHT22;66179;44.686;37.628;2023-03-01T15:44:00;6.87;56.93
76857;DHT22;66179;44.686;37.628;2023-03-01T15:46:32;6.80;56.88
76857;DHT22;66179;44.686;37.628;2023-03-01T15:51:46;6.64;57.98
76857;DHT22;66179;44.686;37.628;2023-03-01T15:54:18;6.55;58.42
76857;DHT22;66179;44.686;37.628;2023-03-01T15:56:46;6.51;58.82
76857;DHT22;66179;44.686;37.628;2023-03-01T15:59:13;6.44;59.25
76857;DHT22;66179;44.686;37.628;2023-03-01T16:01:43;6.38;59.17
76857;DHT22;66179;44.686;37.628;2023-03-01T16:04:11;6.33;59.83
76857;DHT22;66179;44.686;37.628;2023-03-01T16:06:47;6.34;59.48
76857;DHT22;66179;44.686;37.628;2023-03-01T16:09:21;6.34;60.23
76857;DHT22;66179;44.686;37.628;2023-03-01T16:11:50;6.28;60.31
76857;DHT22;66179;44.686;37.628;2023-03-01T16:14:17;6.28;60.70
76857;DHT22;66179;44.686;37.628;2023-03-01T16:16:44;6.31;60.50
76857;DHT22;66179;44.686;37.628;2023-03-01T16:19:10;6.26;61.21
76857;DHT22;66179;44.686;37.628;2023-03-01T16:21:38;6.24;61.69
76857;DHT22;66179;44.686;37.628;2023-03-01T16:24:05;6.23;62.98
76857;DHT22;66179;44.686;37.628;2023-03-01T16:26:32;6.13;62.22
76857;DHT22;66179;44.686;37.628;2023-03-01T16:28:58;5.97;65.12
76857;DHT22;66179;44.686;37.628;2023-03-01T16:31:26;5.76;63.83
76857;DHT22;66179;44.686;37.628;2023-03-01T16:33:54;5.61;64.98
76857;DHT22;66179;44.686;37.628;2023-03-01T16:36:22;5.41;65.81
76857;DHT22;66179;44.686;37.628;2023-03-01T16:38:51;5.21;66.07
76857;DHT22;66179;44.686;37.628;2023-03-01T16:41:20;5.10;67.04
76857;DHT22;66179;44.686;37.628;2023-03-01T16:43:47;4.95;66.49
76857;DHT22;66179;44.686;37.628;2023-03-01T16:46:17;4.82;67.82
76857;DHT22;66179;44.686;37.628;2023-03-01T16:48:45;4.66;68.47
76857;DHT22;66179;44.686;37.628;2023-03-01T16:51:14;4.57;68.98
76857;DHT22;66179;44.686;37.628;2023-03-01T16:53:41;4.47;69.04
76857;DHT22;66179;44.686;37.628;2023-03-01T16:56:10;4.37;69.72
76857;DHT22;66179;44.686;37.628;2023-03-01T16:58:40;4.34;70.19
76857;DHT22;66179;44.686;37.628;2023-03-01T17:01:15;4.18;70.04
76857;DHT22;66179;44.686;37.628;2023-03-01T17:03:43;4.19;69.86
76857;DHT22;66179;44.686;37.628;2023-03-01T17:06:13;4.18;69.87
76857;DHT22;66179;44.686;37.628;2023-03-01T17:08:40;4.09;70.05
76857;DHT22;66179;44.686;37.628;2023-03-01T17:11:12;3.91;70.61
76857;DHT22;66179;44.686;37.628;2023-03-01T17:13:40;3.76;70.91
76857;DHT22;66179;44.686;37.628;2023-03-01T17:16:10;3.64;71.34
76857;DHT22;66179;44.686;37.628;2023-03-01T17:18:37;3.47;71.97
76857;DHT22;66179;44.686;37.628;2023-03-01T17:21:05;3.34;72.60
76857;DHT22;66179;44.686;37.628;2023-03-01T17:23:33;3.26;72.67
76857;DHT22;66179;44.686;37.628;2023-03-01T17:26:00;3.25;74.54
76857;DHT22;66179;44.686;37.628;2023-03-01T17:28:28;3.25;73.19
76857;DHT22;66179;44.686;37.628;2023-03-01T17:30:57;3.14;74.02
76857;DHT22;66179;44.686;37.628;2023-03-01T17:33:24;3.06;74.55
76857;DHT22;66179;44.686;37.628;2023-03-01T17:35:51;3.06;74.58
76857;DHT22;66179;44.686;37.628;2023-03-01T17:38:18;3.09;74.57
76857;DHT22;66179;44.686;37.628;2023-03-01T17:40:45;3.14;74.26
76857;DHT22;66179;44.686;37.628;2023-03-01T17:43:13;3.09;74.09
76857;DHT22;66179;44.686;37.628;2023-03-01T17:45:39;3.02;74.15
76857;DHT22;66179;44.686;37.628;2023-03-01T17:48:09;2.89;74.75
76857;DHT22;66179;44.686;37.628;2023-03-01T17:50:38;2.80;75.04
76857;DHT22;66179;44.686;37.628;2023-03-01T17:53:08;2.73;75.38
76857;DHT22;66179;44.686;37.628;2023-03-01T17:55:37;2.60;75.92
76857;DHT22;66179;44.686;37.628;2023-03-01T17:58:05;2.54;76.24